createdAt,value
2022-11-24T00:00:20.379Z,14.30
2022-11-24T00:02:51.630Z,15.30
2022-11-24T00:05:23.024Z,14.40
2022-11-24T00:07:54.013Z,16.00
2022-11-24T00:10:25.524Z,14.60
2022-11-24T00:12:56.004Z,15.50
2022-11-24T00:15:26.447Z,18.60
2022-11-24T00:17:57.012Z,14.70
2022-11-24T00:20:27.511Z,16.70
2022-11-24T00:22:58.035Z,17.00
2022-11-24T00:25:28.592Z,16.50
2022-11-24T00:27:59.247Z,19.40
2022-11-24T00:30:29.644Z,18.00
2022-11-24T00:33:00.174Z,18.20
2022-11-24T00:35:30.552Z,19.20
2022-11-24T00:38:01.013Z,15.90
2022-11-24T00:40:34.956Z,19.90
2022-11-24T00:43:05.665Z,19.80
2022-11-24T00:45:36.208Z,22.90
2022-11-24T00:48:07.036Z,16.50
2022-11-24T00:50:37.622Z,16.80
2022-11-24T00:53:08.006Z,18.40
2022-11-24T00:55:38.475Z,18.10
2022-11-24T00:58:08.833Z,19.80
2022-11-24T01:00:39.201Z,22.40
2022-11-24T01:03:09.655Z,19.70
2022-11-24T01:05:40.794Z,17.80
2022-11-24T01:08:11.557Z,16.20
2022-11-24T01:10:42.101Z,16.80
2022-11-24T01:13:13.326Z,17.10
2022-11-24T01:15:43.812Z,18.50
2022-11-24T01:18:14.279Z,19.90
2022-11-24T01:20:44.681Z,19.60
2022-11-24T01:23:15.189Z,21.50
2022-11-24T01:25:45.630Z,15.80
2022-11-24T01:28:16.197Z,18.70
2022-11-24T01:30:47.421Z,20.90
2022-11-24T01:33:17.864Z,20.30
2022-11-24T01:35:48.356Z,22.40
2022-11-24T01:38:18.803Z,15.90
2022-11-24T01:40:51.027Z,18.50
2022-11-24T01:43:22.472Z,20.00
2022-11-24T01:46:03.858Z,18.40
2022-11-24T01:48:37.757Z,19.80
2022-11-24T01:51:11.643Z,18.00
2022-11-24T01:53:45.590Z,18.00
2022-11-24T01:56:16.735Z,19.50
2022-11-24T01:58:50.497Z,20.70
2022-11-24T02:01:20.922Z,20.30
2022-11-24T02:03:52.050Z,19.60
2022-11-24T02:06:23.899Z,22.80
2022-11-24T02:08:58.683Z,20.80
2022-11-24T02:11:31.962Z,22.50
2022-11-24T02:14:02.600Z,23.80
2022-11-24T02:16:33.236Z,21.70
2022-11-24T02:19:04.152Z,22.40
2022-11-24T02:21:34.494Z,17.60
2022-11-24T02:24:11.187Z,19.70
2022-11-24T02:26:45.030Z,20.40
2022-11-24T02:29:16.437Z,20.80
2022-11-24T02:31:49.955Z,19.60
2022-11-24T02:34:23.193Z,16.40
2022-11-24T02:36:53.710Z,21.80
2022-11-24T02:39:24.617Z,17.30
2022-11-24T02:42:02.340Z,18.00
2022-11-24T02:44:35.953Z,14.10
2022-11-24T02:47:08.912Z,15.80
2022-11-24T02:49:41.874Z,13.80
2022-11-24T02:54:41.176Z,14.30
2022-11-24T02:57:12.154Z,12.00
2022-11-24T02:59:44.915Z,11.50
2022-11-24T03:02:15.400Z,13.30
2022-11-24T03:04:47.906Z,13.50
2022-11-24T03:07:19.807Z,13.90
2022-11-24T03:09:50.272Z,9.30
2022-11-24T03:12:20.651Z,14.60
2022-11-24T03:14:51.393Z,17.50
2022-11-24T03:17:21.784Z,11.70
2022-11-24T03:19:52.300Z,10.80
2022-11-24T03:22:22.729Z,10.80
2022-11-24T03:24:53.217Z,11.60
2022-11-24T03:27:23.585Z,5.50
2022-11-24T03:29:54.145Z,12.70
2022-11-24T03:32:24.737Z,15.80
2022-11-24T03:34:55.235Z,10.40
2022-11-24T03:37:25.664Z,14.50
2022-11-24T03:39:56.891Z,12.80
2022-11-24T03:42:27.328Z,8.20
2022-11-24T03:44:57.796Z,12.20
2022-11-24T03:47:28.286Z,10.30
2022-11-24T03:49:58.687Z,9.20
2022-11-24T03:52:29.075Z,10.20
2022-11-24T03:54:59.497Z,8.70
2022-11-24T03:57:32.398Z,13.20
2022-11-24T04:00:04.833Z,15.70
2022-11-24T04:02:35.505Z,11.70
2022-11-24T04:05:06.806Z,10.20
2022-11-24T04:07:37.287Z,11.70
2022-11-24T04:10:09.266Z,9.60
2022-11-24T04:12:45.469Z,11.30
2022-11-24T04:15:19.445Z,13.10
2022-11-24T04:17:50.891Z,11.10
2022-11-24T04:20:21.416Z,12.10
2022-11-24T04:22:52.391Z,11.10
2022-11-24T04:25:22.858Z,10.30
2022-11-24T04:27:55.690Z,14.00
2022-11-24T04:30:27.548Z,15.90
2022-11-24T04:32:58.162Z,9.60
2022-11-24T04:35:28.568Z,9.30
2022-11-24T04:37:59.213Z,13.20
2022-11-24T04:40:30.078Z,12.30
2022-11-24T04:43:00.510Z,13.10
2022-11-24T04:45:30.986Z,11.40
2022-11-24T04:48:01.342Z,14.80
2022-11-24T04:50:31.835Z,12.70
2022-11-24T04:53:02.535Z,12.60
2022-11-24T04:55:32.952Z,14.40
2022-11-24T04:58:03.415Z,12.50
2022-11-24T05:00:33.840Z,18.30
2022-11-24T05:03:04.451Z,12.40
2022-11-24T05:05:34.917Z,18.50
2022-11-24T05:08:05.716Z,13.30
2022-11-24T05:10:36.806Z,11.20
2022-11-24T05:13:08.793Z,12.70
2022-11-24T05:15:41.328Z,15.00
2022-11-24T05:18:15.306Z,17.60
2022-11-24T05:20:46.082Z,15.40
2022-11-24T05:23:16.549Z,18.40
2022-11-24T05:25:47.980Z,14.20
2022-11-24T05:28:18.686Z,17.20
2022-11-24T05:30:49.256Z,12.80
2022-11-24T05:33:20.167Z,16.50
2022-11-24T05:35:51.256Z,13.50
2022-11-24T05:38:22.549Z,13.40
2022-11-24T05:40:53.046Z,11.20
2022-11-24T05:43:24.690Z,18.70
2022-11-24T05:45:55.141Z,14.30
2022-11-24T05:48:25.567Z,15.60
2022-11-24T05:51:00.069Z,13.20
2022-11-24T05:53:30.473Z,12.60
2022-11-24T05:56:03.330Z,19.00
2022-11-24T05:58:33.829Z,15.90
2022-11-24T06:01:08.300Z,18.90
2022-11-24T06:03:39.440Z,12.30
2022-11-24T06:06:10.065Z,12.10
2022-11-24T06:08:40.412Z,10.20
2022-11-24T06:11:20.505Z,16.90
2022-11-24T06:13:51.042Z,12.20
2022-11-24T06:16:21.695Z,12.60
2022-11-24T06:18:52.199Z,18.40
2022-11-24T06:21:22.658Z,14.60
2022-11-24T06:23:54.817Z,16.70
2022-11-24T06:26:25.392Z,13.90
2022-11-24T06:28:55.880Z,12.00
2022-11-24T06:31:26.321Z,19.60
2022-11-24T06:33:56.899Z,16.00
2022-11-24T06:36:27.882Z,20.20
2022-11-24T06:38:58.240Z,14.30
2022-11-24T06:41:28.724Z,15.40
2022-11-24T06:43:59.250Z,13.00
2022-11-24T06:46:29.661Z,15.10
2022-11-24T06:49:00.653Z,16.70
2022-11-24T06:51:31.083Z,18.20
2022-11-24T06:54:01.788Z,16.60
2022-11-24T06:56:32.292Z,13.00
2022-11-24T06:59:02.843Z,18.40
2022-11-24T07:01:33.373Z,15.90
2022-11-24T07:04:04.546Z,14.40
2022-11-24T07:06:34.976Z,13.00
2022-11-24T07:09:05.973Z,14.60
2022-11-24T07:11:36.510Z,16.40
2022-11-24T07:14:07.570Z,16.30
2022-11-24T07:16:38.315Z,15.50
2022-11-24T07:19:09.812Z,9.70
2022-11-24T07:21:40.764Z,17.10
2022-11-24T07:24:11.499Z,18.50
2022-11-24T07:26:41.884Z,15.10
2022-11-24T07:29:12.279Z,14.00
2022-11-24T07:31:42.747Z,14.70
2022-11-24T07:34:14.774Z,14.00
2022-11-24T07:36:45.435Z,12.30
2022-11-24T07:39:15.833Z,22.50
2022-11-24T07:41:46.157Z,13.50
2022-11-24T07:44:16.520Z,19.00
2022-11-24T07:46:47.012Z,17.00
2022-11-24T07:49:17.525Z,22.20
2022-11-24T07:51:48.011Z,15.70
2022-11-24T07:54:18.860Z,20.10
2022-11-24T07:56:51.684Z,19.80
2022-11-24T07:59:22.083Z,13.30
2022-11-24T08:01:52.555Z,14.80
2022-11-24T08:04:23.353Z,14.20
2022-11-24T08:06:53.736Z,14.20
2022-11-24T08:09:24.368Z,15.50
2022-11-24T08:11:54.755Z,13.80
2022-11-24T08:14:25.162Z,19.90
2022-11-24T08:16:55.785Z,15.30
2022-11-24T08:19:26.439Z,16.60
2022-11-24T08:21:56.833Z,16.60
2022-11-24T08:24:27.522Z,12.30
2022-11-24T08:26:57.854Z,18.00
2022-11-24T08:29:31.763Z,15.90
2022-11-24T08:32:02.246Z,12.00
2022-11-24T08:34:33.323Z,15.90
2022-11-24T08:37:05.702Z,17.90
2022-11-24T08:39:36.476Z,16.40
2022-11-24T08:42:07.097Z,11.00
2022-11-24T08:44:37.895Z,18.20
2022-11-24T08:47:08.532Z,15.70
2022-11-24T08:49:39.553Z,11.20
2022-11-24T08:52:10.606Z,17.40
2022-11-24T08:54:44.323Z,11.20
2022-11-24T08:57:20.305Z,20.50
2022-11-24T08:59:52.780Z,12.60
2022-11-24T09:02:23.383Z,16.70
2022-11-24T09:04:54.255Z,15.10
2022-11-24T09:07:24.974Z,13.40
2022-11-24T09:09:55.466Z,14.30
2022-11-24T09:12:25.924Z,11.60
2022-11-24T09:14:56.390Z,10.90
2022-11-24T09:17:26.868Z,7.20
2022-11-24T09:19:57.421Z,12.80
2022-11-24T09:22:27.859Z,8.80
2022-11-24T09:24:58.410Z,10.10
2022-11-24T09:27:29.580Z,12.00
2022-11-24T09:30:00.147Z,8.90
2022-11-24T09:32:31.325Z,11.20
2022-11-24T09:35:02.027Z,11.70
2022-11-24T09:37:36.196Z,8.80
2022-11-24T09:40:08.399Z,7.70
2022-11-24T09:42:49.297Z,10.40
2022-11-24T09:51:25.096Z,10.10
2022-11-24T09:56:27.631Z,11.90
2022-11-24T09:59:02.665Z,7.60
2022-11-24T10:01:35.085Z,8.40
2022-11-24T10:04:10.937Z,6.40
2022-11-24T10:06:45.883Z,8.90
2022-11-24T10:09:29.469Z,8.90
2022-11-24T10:14:47.990Z,9.10
2022-11-24T10:17:30.263Z,8.50
2022-11-24T10:20:06.742Z,11.30
2022-11-24T10:22:46.426Z,10.40
2022-11-24T10:25:22.369Z,10.50
2022-11-24T10:27:59.875Z,7.00
2022-11-24T10:30:30.614Z,4.70
2022-11-24T10:33:05.039Z,11.30
2022-11-24T10:35:40.327Z,10.00
2022-11-24T10:38:17.729Z,8.60
2022-11-24T10:40:58.269Z,7.90
2022-11-24T10:43:29.979Z,7.70
2022-11-24T10:46:07.013Z,7.60
2022-11-24T10:48:42.756Z,8.00
2022-11-24T10:51:53.702Z,9.00
2022-11-24T10:54:25.654Z,9.90
2022-11-24T10:56:57.964Z,8.40
2022-11-24T10:59:35.887Z,6.50
2022-11-24T11:02:33.944Z,8.00
2022-11-24T11:05:27.452Z,8.10
2022-11-24T11:13:25.448Z,5.40
2022-11-24T11:15:56.104Z,9.40
2022-11-24T11:18:31.631Z,10.90
2022-11-24T11:21:03.655Z,10.70
2022-11-24T11:23:36.191Z,7.80
2022-11-24T11:26:33.482Z,6.30
2022-11-24T11:34:59.118Z,7.60
2022-11-24T11:37:32.191Z,3.80
2022-11-24T11:40:03.511Z,4.60
2022-11-24T11:43:01.403Z,7.10
2022-11-24T11:45:39.252Z,6.00
2022-11-24T11:48:25.930Z,4.50
2022-11-24T11:51:22.334Z,7.50
2022-11-24T11:53:57.929Z,5.90
2022-11-24T11:56:31.180Z,5.90
2022-11-24T11:59:25.151Z,5.10
2022-11-24T12:02:19.822Z,6.90
2022-11-24T12:04:54.720Z,4.60
2022-11-24T12:07:48.654Z,5.60
2022-11-24T12:10:26.372Z,7.70
2022-11-24T12:13:08.379Z,4.20
2022-11-24T12:15:40.879Z,6.30
2022-11-24T12:18:55.820Z,9.50
2022-11-24T12:21:26.014Z,5.70
2022-11-24T12:24:10.648Z,4.90
2022-11-24T12:26:45.141Z,6.70
2022-11-24T12:29:32.272Z,6.80
2022-11-24T12:32:08.508Z,7.90
2022-11-24T12:34:46.637Z,6.70
2022-11-24T12:37:29.799Z,5.20
2022-11-24T12:42:41.077Z,10.30
2022-11-24T12:45:17.090Z,8.70
2022-11-24T12:48:04.756Z,5.50
2022-11-24T12:50:38.680Z,4.80
2022-11-24T12:53:15.580Z,5.40
2022-11-24T12:55:46.383Z,5.40
2022-11-24T12:58:21.820Z,8.80
2022-11-24T13:01:03.710Z,5.20
2022-11-24T13:03:41.021Z,6.00
2022-11-24T13:06:16.515Z,6.90
2022-11-24T13:08:47.147Z,4.50
2022-11-24T13:11:43.997Z,5.20
2022-11-24T13:14:30.019Z,7.80
2022-11-24T13:19:52.317Z,6.00
2022-11-24T13:22:27.148Z,7.20
2022-11-24T13:25:16.269Z,8.90
2022-11-24T13:27:52.837Z,5.10
2022-11-24T13:30:59.203Z,7.00
2022-11-24T13:33:34.851Z,5.00
2022-11-24T13:36:31.835Z,11.40
2022-11-24T13:39:03.356Z,7.10
2022-11-24T13:42:08.541Z,5.40
2022-11-24T13:44:52.547Z,7.60
2022-11-24T13:47:39.504Z,6.00
2022-11-24T13:50:14.143Z,6.70
2022-11-24T13:52:50.843Z,8.10
2022-11-24T13:55:31.201Z,5.00
2022-11-24T13:58:06.088Z,6.70
2022-11-24T14:00:38.094Z,5.10
2022-11-24T14:03:15.580Z,5.80
2022-11-24T14:05:53.951Z,8.90
2022-11-24T14:08:27.459Z,6.70
2022-11-24T14:10:59.262Z,3.90
2022-11-24T14:13:31.221Z,7.70
2022-11-24T14:16:07.096Z,2.10
2022-11-24T14:18:39.179Z,6.60
2022-11-24T14:21:24.995Z,7.60
2022-11-24T14:23:57.262Z,3.70
2022-11-24T14:26:32.529Z,3.30
2022-11-24T14:29:08.707Z,6.80
2022-11-24T14:31:39.304Z,5.10
2022-11-24T14:34:21.161Z,6.00
2022-11-24T14:36:52.243Z,8.10
2022-11-24T14:39:26.937Z,5.80
2022-11-24T14:42:01.594Z,6.80
2022-11-24T14:44:35.843Z,6.20
2022-11-24T14:47:14.199Z,3.70
2022-11-24T14:49:46.455Z,8.70
2022-11-24T14:52:19.010Z,4.60
2022-11-24T14:54:51.516Z,8.30
2022-11-24T14:57:28.644Z,6.90
2022-11-24T15:00:19.288Z,8.20
2022-11-24T15:02:54.012Z,6.40
2022-11-24T15:05:25.783Z,3.50
2022-11-24T15:08:03.943Z,9.20
2022-11-24T15:10:36.844Z,5.20
2022-11-24T15:13:16.694Z,5.20
2022-11-24T15:15:49.775Z,5.70
2022-11-24T15:18:26.737Z,5.60
2022-11-24T15:20:58.711Z,10.80
2022-11-24T15:23:31.511Z,5.40
2022-11-24T15:26:36.707Z,7.40
2022-11-24T15:29:10.580Z,7.00
2022-11-24T15:31:41.600Z,6.40
2022-11-24T15:34:18.303Z,8.60
2022-11-24T15:36:48.698Z,5.80
2022-11-24T15:39:28.161Z,9.10
2022-11-24T15:42:05.847Z,3.30
2022-11-24T15:44:37.039Z,7.60
2022-11-24T15:47:07.786Z,9.70
2022-11-24T15:49:38.323Z,14.20
2022-11-24T15:52:08.794Z,7.90
2022-11-24T15:54:39.370Z,7.10
2022-11-24T15:57:12.784Z,9.50
2022-11-24T15:59:43.213Z,7.10
2022-11-24T16:02:13.984Z,11.40
2022-11-24T16:04:44.490Z,8.40
2022-11-24T16:07:16.979Z,10.10
2022-11-24T16:09:47.612Z,9.80
2022-11-24T16:12:19.633Z,6.60
2022-11-24T16:14:50.137Z,9.40
2022-11-24T16:17:22.085Z,8.60
2022-11-24T16:20:00.117Z,11.30
2022-11-24T16:22:31.459Z,15.20
2022-11-24T16:25:02.835Z,9.50
2022-11-24T16:27:33.429Z,13.40
2022-11-24T16:30:05.563Z,6.30
2022-11-24T16:32:36.197Z,9.30
2022-11-24T16:35:07.430Z,8.30
2022-11-24T16:37:39.868Z,30.00
2022-11-24T16:40:12.132Z,37.00
2022-11-24T16:42:46.580Z,19.90
2022-11-24T16:45:17.957Z,22.90
2022-11-24T16:47:48.405Z,21.30
2022-11-24T16:50:19.205Z,16.60
2022-11-24T16:53:15.387Z,29.00
2022-11-24T16:55:45.739Z,15.10
2022-11-24T16:58:18.613Z,12.80
2022-11-24T17:00:49.026Z,9.80
2022-11-24T17:03:20.108Z,7.40
2022-11-24T17:05:59.789Z,9.90
2022-11-24T17:08:32.911Z,21.70
2022-11-24T17:11:08.964Z,13.50
2022-11-24T17:13:39.677Z,12.00
2022-11-24T17:16:11.901Z,8.00
2022-11-24T17:18:42.974Z,7.60
2022-11-24T17:23:53.464Z,12.90
2022-11-24T17:26:24.980Z,12.40
2022-11-24T17:28:55.897Z,24.60
2022-11-24T17:31:29.251Z,17.90
2022-11-24T17:34:01.120Z,9.70
2022-11-24T17:36:33.514Z,11.20
2022-11-24T17:39:06.410Z,11.60
2022-11-24T17:41:37.005Z,9.70
2022-11-24T17:44:11.406Z,5.40
2022-11-24T17:46:41.999Z,7.50
2022-11-24T17:49:15.404Z,8.00
2022-11-24T17:51:50.306Z,8.70
2022-11-24T17:57:11.279Z,9.00
2022-11-24T17:59:41.898Z,10.10
2022-11-24T18:02:12.689Z,11.30
2022-11-24T18:04:43.909Z,8.80
2022-11-24T18:07:14.415Z,7.30
2022-11-24T18:09:45.026Z,13.60
2022-11-24T18:12:15.415Z,13.70
2022-11-24T18:14:47.039Z,28.40
2022-11-24T18:17:17.460Z,27.30
2022-11-24T18:19:47.980Z,41.60
2022-11-24T18:22:20.976Z,22.90
2022-11-24T18:24:57.641Z,25.40
2022-11-24T18:27:31.930Z,20.40
2022-11-24T18:30:02.661Z,17.60
2022-11-24T18:32:34.289Z,27.30
2022-11-24T18:35:04.934Z,20.70
2022-11-24T18:37:39.895Z,18.40
2022-11-24T18:40:16.015Z,23.80
2022-11-24T18:42:46.484Z,15.50
2022-11-24T18:45:21.044Z,12.70
2022-11-24T18:47:51.493Z,19.30
2022-11-24T18:50:23.056Z,19.50
2022-11-24T18:52:55.304Z,19.60
2022-11-24T18:55:26.330Z,16.20
2022-11-24T18:57:57.415Z,13.20
2022-11-24T19:00:28.019Z,16.70
2022-11-24T19:03:00.385Z,11.80
2022-11-24T19:05:32.085Z,14.20
2022-11-24T19:08:04.694Z,10.30
2022-11-24T19:10:39.322Z,8.00
2022-11-24T19:13:12.935Z,10.90
2022-11-24T19:15:44.180Z,12.30
2022-11-24T19:18:16.463Z,10.60
2022-11-24T19:20:49.210Z,12.80
2022-11-24T19:23:21.434Z,10.40
2022-11-24T19:25:53.344Z,14.30
2022-11-24T19:28:25.692Z,12.50
2022-11-24T19:31:00.998Z,11.40
2022-11-24T19:33:33.748Z,9.00
2022-11-24T19:36:11.834Z,11.50
2022-11-24T19:38:44.291Z,13.60
2022-11-24T19:41:17.322Z,7.80
2022-11-24T19:46:21.224Z,7.70
2022-11-24T19:48:56.142Z,18.10
2022-11-24T19:51:31.177Z,10.70
2022-11-24T19:54:04.341Z,14.70
2022-11-24T19:56:41.245Z,14.10
2022-11-24T20:09:20.065Z,18.40
2022-11-24T20:11:50.578Z,24.30
2022-11-24T20:14:22.524Z,31.90
2022-11-24T20:16:53.071Z,23.50
2022-11-24T20:19:23.625Z,24.10
2022-11-24T20:21:55.384Z,24.00
2022-11-24T20:24:26.115Z,21.90
2022-11-24T20:27:00.114Z,19.70
2022-11-24T20:29:33.661Z,14.40
2022-11-24T20:32:04.140Z,23.40
2022-11-24T20:34:37.413Z,17.20
2022-11-24T20:37:13.229Z,16.20
2022-11-24T20:39:43.611Z,11.70
2022-11-24T20:42:14.274Z,16.00
2022-11-24T20:44:44.749Z,14.50
2022-11-24T20:47:15.187Z,12.10
2022-11-24T20:49:45.772Z,11.00
2022-11-24T20:52:17.281Z,11.90
2022-11-24T20:54:47.752Z,11.50
2022-11-24T20:57:18.383Z,13.50
2022-11-24T20:59:49.510Z,17.40
2022-11-24T21:02:21.067Z,13.40
2022-11-24T21:04:51.608Z,14.50
2022-11-24T21:07:22.218Z,13.20
2022-11-24T21:09:52.934Z,8.70
2022-11-24T21:12:23.714Z,10.20
2022-11-24T21:14:54.270Z,8.70
2022-11-24T21:17:24.739Z,12.60
2022-11-24T21:19:59.670Z,7.30
2022-11-24T21:22:31.603Z,11.10
2022-11-24T21:25:02.086Z,10.00
2022-11-24T21:27:32.599Z,13.40
2022-11-24T21:30:03.289Z,8.30
2022-11-24T21:32:33.923Z,10.20
2022-11-24T21:35:04.506Z,6.90
2022-11-24T21:37:34.941Z,13.20
2022-11-24T21:40:06.561Z,8.90
2022-11-24T21:42:37.208Z,17.70
2022-11-24T21:45:11.488Z,13.40
2022-11-24T21:47:42.482Z,14.10
2022-11-24T21:50:13.755Z,12.40
2022-11-24T21:52:44.307Z,15.80
2022-11-24T21:55:14.780Z,14.60
2022-11-24T21:57:45.188Z,8.90
2022-11-24T22:00:17.977Z,12.60
2022-11-24T22:02:50.382Z,11.20
2022-11-24T22:05:20.967Z,11.80
2022-11-24T22:07:51.505Z,10.90
2022-11-24T22:10:22.004Z,7.90
2022-11-24T22:12:52.543Z,11.30
2022-11-24T22:15:22.992Z,13.30
2022-11-24T22:17:53.405Z,8.00
2022-11-24T22:20:23.942Z,10.70
2022-11-24T22:22:54.890Z,8.00
2022-11-24T22:25:25.334Z,13.20
2022-11-24T22:27:56.784Z,9.40
2022-11-24T22:30:27.305Z,6.80
2022-11-24T22:32:57.983Z,16.40
2022-11-24T22:35:28.522Z,7.00
2022-11-24T22:37:58.946Z,12.40
2022-11-24T22:40:29.504Z,5.30
2022-11-24T22:43:00.289Z,10.30
2022-11-24T22:45:30.772Z,8.90
2022-11-24T22:48:01.276Z,9.60
2022-11-24T22:50:31.718Z,11.80
2022-11-24T22:57:34.640Z,8.80
2022-11-24T23:00:05.808Z,14.20
2022-11-24T23:02:36.293Z,7.70
2022-11-24T23:05:07.656Z,9.30
2022-11-24T23:07:38.325Z,8.30
2022-11-24T23:10:10.640Z,7.50
2022-11-24T23:12:41.154Z,8.40
2022-11-24T23:15:12.436Z,6.40
2022-11-24T23:17:42.941Z,9.90
2022-11-24T23:20:16.313Z,6.40
2022-11-24T23:22:46.930Z,7.90
2022-11-24T23:25:17.741Z,7.30
2022-11-24T23:27:48.237Z,6.60
2022-11-24T23:30:19.265Z,10.20
2022-11-24T23:32:49.754Z,9.60
2022-11-24T23:35:23.679Z,7.10
2022-11-24T23:38:08.263Z,8.80
2022-11-24T23:40:38.814Z,7.30
2022-11-24T23:43:09.282Z,12.00
2022-11-24T23:45:39.876Z,11.60
2022-11-24T23:48:10.286Z,8.80
2022-11-24T23:50:40.763Z,9.40
2022-11-24T23:53:11.263Z,7.00
2022-11-24T23:55:41.906Z,11.40
2022-11-24T23:58:12.504Z,11.70
